createdAt,value
2017-05-08T00:00:39.872Z,1.92
2017-05-08T00:03:08.949Z,1.80
2017-05-08T00:05:37.989Z,1.70
2017-05-08T00:08:07.801Z,1.68
2017-05-08T00:10:36.875Z,1.86
2017-05-08T00:13:05.907Z,2.14
2017-05-08T00:15:35.723Z,1.98
2017-05-08T00:18:04.750Z,1.72
2017-05-08T00:20:33.822Z,1.68
2017-05-08T00:23:02.892Z,1.78
2017-05-08T00:25:32.705Z,2.30
2017-05-08T00:28:01.729Z,2.50
2017-05-08T00:30:30.796Z,2.40
2017-05-08T00:33:00.584Z,1.72
2017-05-08T00:35:29.664Z,2.12
2017-05-08T00:37:58.705Z,2.16
2017-05-08T00:40:28.505Z,2.20
2017-05-08T00:42:57.582Z,2.82
2017-05-08T00:45:27.797Z,2.92
2017-05-08T00:47:56.896Z,2.18
2017-05-08T00:50:25.928Z,2.08
2017-05-08T00:52:55.009Z,2.28
2017-05-08T00:55:24.101Z,1.72
2017-05-08T00:57:53.207Z,2.12
2017-05-08T01:00:23.023Z,2.72
2017-05-08T01:02:52.154Z,2.78
2017-05-08T01:05:21.204Z,2.36
2017-05-08T01:07:50.267Z,2.58
2017-05-08T01:10:19.297Z,2.92
2017-05-08T01:12:48.388Z,2.92
2017-05-08T01:15:17.428Z,4.04
2017-05-08T01:17:46.491Z,2.52
2017-05-08T01:20:16.540Z,2.70
2017-05-08T01:22:45.576Z,2.70
2017-05-08T01:25:14.639Z,2.56
2017-05-08T01:27:44.016Z,2.80
2017-05-08T01:30:14.031Z,4.90
2017-05-08T01:32:43.101Z,2.08
2017-05-08T01:35:12.904Z,2.40
2017-05-08T01:37:41.967Z,2.22
2017-05-08T01:40:11.002Z,2.70
2017-05-08T01:42:40.064Z,2.68
2017-05-08T01:45:09.123Z,3.00
2017-05-08T01:47:38.887Z,3.18
2017-05-08T01:50:07.965Z,2.72
2017-05-08T01:52:36.995Z,2.38
2017-05-08T01:55:06.141Z,4.14
2017-05-08T01:57:35.224Z,2.80
2017-05-08T02:00:04.520Z,3.48
2017-05-08T02:02:34.333Z,3.14
2017-05-08T02:05:04.347Z,2.82
2017-05-08T02:07:34.169Z,3.16
2017-05-08T02:10:03.190Z,4.20
2017-05-08T02:12:32.249Z,2.90
2017-05-08T02:15:02.048Z,3.74
2017-05-08T02:17:31.812Z,3.10
2017-05-08T02:20:00.911Z,3.62
2017-05-08T02:22:29.927Z,3.54
2017-05-08T02:24:58.997Z,3.10
2017-05-08T02:27:28.067Z,3.10
2017-05-08T02:29:57.104Z,2.86
2017-05-08T02:32:26.156Z,2.76
2017-05-08T02:34:55.218Z,2.94
2017-05-08T02:37:24.239Z,2.68
2017-05-08T02:39:53.318Z,4.38
2017-05-08T02:42:23.453Z,3.54
2017-05-08T02:44:53.225Z,4.30
2017-05-08T02:47:22.295Z,3.60
2017-05-08T02:49:51.323Z,4.38
2017-05-08T02:52:20.393Z,5.30
2017-05-08T02:54:49.410Z,5.18
2017-05-08T02:57:18.469Z,4.48
2017-05-08T02:59:47.535Z,4.80
2017-05-08T03:02:17.303Z,4.48
2017-05-08T03:04:46.397Z,5.16
2017-05-08T03:07:15.424Z,3.80
2017-05-08T03:09:44.485Z,4.02
2017-05-08T03:12:13.516Z,3.92
2017-05-08T03:14:43.327Z,3.88
2017-05-08T03:17:12.361Z,3.32
2017-05-08T03:19:41.431Z,3.82
2017-05-08T03:22:11.206Z,2.80
2017-05-08T03:24:40.264Z,3.30
2017-05-08T03:27:09.316Z,3.74
2017-05-08T03:29:38.384Z,3.16
2017-05-08T03:32:07.447Z,4.02
2017-05-08T03:34:36.507Z,3.18
2017-05-08T03:37:06.645Z,4.42
2017-05-08T03:39:36.432Z,5.32
2017-05-08T03:42:05.502Z,5.62
2017-05-08T03:44:34.533Z,5.74
2017-05-08T03:47:04.333Z,6.16
2017-05-08T03:49:33.359Z,5.80
2017-05-08T03:52:02.757Z,4.80
2017-05-08T03:54:31.777Z,4.36
2017-05-08T03:57:00.851Z,4.34
2017-05-08T03:59:30.664Z,4.48
2017-05-08T04:01:59.686Z,4.78
2017-05-08T04:04:28.758Z,6.20
2017-05-08T04:06:57.825Z,5.22
2017-05-08T04:09:26.875Z,4.98
2017-05-08T04:11:55.919Z,5.04
2017-05-08T04:14:24.985Z,4.92
2017-05-08T04:16:54.052Z,5.64
2017-05-08T04:19:23.119Z,3.46
2017-05-08T04:21:52.918Z,4.44
2017-05-08T04:24:22.691Z,4.44
2017-05-08T04:26:51.769Z,3.54
2017-05-08T04:29:20.791Z,4.68
2017-05-08T04:31:50.088Z,4.24
2017-05-08T04:34:19.183Z,5.10
2017-05-08T04:36:48.239Z,3.28
2017-05-08T04:39:17.634Z,4.88
2017-05-08T04:41:47.402Z,6.26
2017-05-08T04:44:16.473Z,3.28
2017-05-08T04:46:45.497Z,4.38
2017-05-08T04:49:14.555Z,3.88
2017-05-08T04:51:43.624Z,4.82
2017-05-08T04:54:13.392Z,4.18
2017-05-08T04:56:42.457Z,3.32
2017-05-08T04:59:11.485Z,4.08
2017-05-08T05:01:40.568Z,4.08
2017-05-08T05:04:09.596Z,5.06
2017-05-08T05:06:38.915Z,3.50
2017-05-08T05:09:08.935Z,4.06
2017-05-08T05:11:38.753Z,2.76
2017-05-08T05:14:07.773Z,2.58
2017-05-08T05:16:36.838Z,4.70
2017-05-08T05:19:06.676Z,3.40
2017-05-08T05:21:35.724Z,2.94
2017-05-08T05:24:04.776Z,3.60
2017-05-08T05:26:33.866Z,3.80
2017-05-08T05:29:02.943Z,5.20
2017-05-08T05:31:31.966Z,3.32
2017-05-08T05:34:01.031Z,3.20
2017-05-08T05:36:30.100Z,4.46
2017-05-08T05:38:59.140Z,4.06
2017-05-08T05:41:28.203Z,3.06
2017-05-08T05:43:57.976Z,3.78
2017-05-08T05:46:27.324Z,4.40
2017-05-08T05:48:57.173Z,3.84
2017-05-08T05:51:26.224Z,4.48
2017-05-08T05:53:55.996Z,3.82
2017-05-08T05:56:25.347Z,3.68
2017-05-08T05:58:55.122Z,4.16
2017-05-08T06:01:24.249Z,3.02
2017-05-08T06:03:54.024Z,3.44
2017-05-08T06:06:23.100Z,3.52
2017-05-08T06:08:52.121Z,2.88
2017-05-08T06:11:21.188Z,3.90
2017-05-08T06:13:50.252Z,3.06
2017-05-08T06:16:19.284Z,3.28
2017-05-08T06:18:48.346Z,4.00
2017-05-08T06:21:17.366Z,4.30
2017-05-08T06:23:46.680Z,2.70
2017-05-08T06:26:15.721Z,3.52
2017-05-08T06:28:45.522Z,3.68
2017-05-08T06:31:14.552Z,4.70
2017-05-08T06:33:43.633Z,3.94
2017-05-08T06:36:13.403Z,2.90
2017-05-08T06:38:42.474Z,3.32
2017-05-08T06:41:11.498Z,3.90
2017-05-08T06:43:40.612Z,6.04
2017-05-08T06:46:09.651Z,3.12
2017-05-08T06:48:38.708Z,4.10
2017-05-08T06:51:08.520Z,4.10
2017-05-08T06:53:38.295Z,6.12
2017-05-08T06:56:07.371Z,4.84
2017-05-08T06:58:36.405Z,2.48
2017-05-08T07:01:05.467Z,2.18
2017-05-08T07:03:34.495Z,3.52
2017-05-08T07:06:03.581Z,3.10
2017-05-08T07:08:32.601Z,3.76
2017-05-08T07:11:01.671Z,3.20
2017-05-08T07:13:30.705Z,3.40
2017-05-08T07:16:00.505Z,4.20
2017-05-08T07:18:30.283Z,5.38
2017-05-08T07:20:59.865Z,4.20
2017-05-08T07:23:29.140Z,6.14
2017-05-08T07:25:58.971Z,5.80
2017-05-08T07:28:28.007Z,8.44
2017-05-08T07:30:57.105Z,7.40
2017-05-08T07:33:26.146Z,8.90
2017-05-08T07:35:56.288Z,9.12
2017-05-08T07:38:26.091Z,9.30
2017-05-08T07:40:55.480Z,9.48
2017-05-08T07:43:24.511Z,11.76
2017-05-08T07:45:53.571Z,11.74
2017-05-08T07:48:22.646Z,9.50
2017-05-08T07:50:52.419Z,12.40
2017-05-08T07:53:21.503Z,13.50
2017-05-08T07:55:50.544Z,12.84
2017-05-08T07:58:19.607Z,11.48
2017-05-08T08:00:48.687Z,16.38
2017-05-08T08:03:17.719Z,16.14
2017-05-08T08:05:46.782Z,17.18
2017-05-08T08:08:15.869Z,17.02
2017-05-08T08:10:44.899Z,19.72
2017-05-08T08:13:13.995Z,17.36
2017-05-08T08:15:43.051Z,16.48
2017-05-08T08:18:12.123Z,17.14
2017-05-08T08:20:41.189Z,19.32
2017-05-08T08:23:10.528Z,17.26
2017-05-08T08:25:39.614Z,18.52
2017-05-08T08:28:09.395Z,17.86
2017-05-08T08:30:38.835Z,21.12
2017-05-08T08:33:07.942Z,17.62
2017-05-08T08:35:36.964Z,19.06
2017-05-08T08:38:06.003Z,17.42
2017-05-08T08:40:35.845Z,19.46
2017-05-08T08:43:04.898Z,18.06
2017-05-08T08:45:33.976Z,18.62
2017-05-08T08:48:03.026Z,18.00
2017-05-08T08:50:32.092Z,18.30
2017-05-08T08:53:01.200Z,18.56
2017-05-08T08:55:30.988Z,19.10
2017-05-08T08:58:00.062Z,20.00
2017-05-08T09:00:29.094Z,19.04
2017-05-08T09:02:58.205Z,18.72
2017-05-08T09:05:27.980Z,19.28
2017-05-08T09:07:57.059Z,17.44
2017-05-08T09:10:26.099Z,18.50
2017-05-08T09:12:56.752Z,17.72
2017-05-08T09:15:25.788Z,18.46
2017-05-08T09:17:55.144Z,17.98
2017-05-08T09:20:24.195Z,16.66
2017-05-08T09:22:53.266Z,15.30
2017-05-08T09:25:22.349Z,15.06
2017-05-08T09:27:51.388Z,15.48
2017-05-08T09:30:20.462Z,15.76
2017-05-08T09:32:49.547Z,13.42
2017-05-08T09:35:18.591Z,14.68
2017-05-08T09:37:48.425Z,13.84
2017-05-08T09:40:18.200Z,14.50
2017-05-08T09:42:47.284Z,12.08
2017-05-08T09:45:16.334Z,12.70
2017-05-08T09:47:45.426Z,14.60
2017-05-08T09:50:14.458Z,14.84
2017-05-08T09:52:43.539Z,11.58
2017-05-08T09:55:12.576Z,10.80
2017-05-08T09:57:41.646Z,11.42
2017-05-08T10:00:10.722Z,12.76
2017-05-08T10:02:39.752Z,11.76
2017-05-08T10:05:09.096Z,13.76
2017-05-08T10:07:38.169Z,12.40
2017-05-08T10:10:07.211Z,11.28
2017-05-08T10:12:36.535Z,12.40
2017-05-08T10:15:05.568Z,10.62
2017-05-08T10:17:35.404Z,11.94
2017-05-08T10:20:04.477Z,13.78
2017-05-08T10:22:34.292Z,11.60
2017-05-08T10:25:04.082Z,11.62
2017-05-08T10:27:33.419Z,11.86
2017-05-08T10:30:02.504Z,11.04
2017-05-08T10:32:32.323Z,12.36
2017-05-08T10:35:02.098Z,10.30
2017-05-08T10:37:31.194Z,10.56
2017-05-08T10:40:00.231Z,9.90
2017-05-08T10:42:28.570Z,8.64
2017-05-08T10:44:57.637Z,10.24
2017-05-08T10:47:26.695Z,8.00
2017-05-08T10:49:56.512Z,8.46
2017-05-08T10:52:24.808Z,9.80
2017-05-08T10:54:53.854Z,8.08
2017-05-08T10:57:22.925Z,8.72
2017-05-08T10:59:51.960Z,8.98
2017-05-08T11:02:21.794Z,8.78
2017-05-08T11:04:50.819Z,8.00
2017-05-08T11:07:20.187Z,9.96
2017-05-08T11:09:49.317Z,7.74
2017-05-08T11:12:18.383Z,9.12
2017-05-08T11:14:53.154Z,8.96
2017-05-08T11:17:23.027Z,9.36
2017-05-08T11:19:52.059Z,8.06
2017-05-08T11:22:21.143Z,8.70
2017-05-08T11:24:50.174Z,7.30
2017-05-08T11:27:19.250Z,8.06
2017-05-08T11:29:48.300Z,8.16
2017-05-08T11:32:17.379Z,9.38
2017-05-08T11:34:47.160Z,8.64
2017-05-08T11:37:16.239Z,8.66
2017-05-08T11:39:45.312Z,7.52
2017-05-08T11:42:14.380Z,9.46
2017-05-08T11:44:44.213Z,7.52
2017-05-08T11:47:13.246Z,7.76
2017-05-08T11:49:42.607Z,7.62
2017-05-08T11:52:11.661Z,9.66
2017-05-08T11:54:40.732Z,8.76
2017-05-08T11:57:09.831Z,9.10
2017-05-08T11:59:39.197Z,8.68
2017-05-08T12:02:09.012Z,9.88
2017-05-08T12:04:38.049Z,10.10
2017-05-08T12:07:07.129Z,10.84
2017-05-08T12:09:36.208Z,8.68
2017-05-08T12:12:05.251Z,8.00
2017-05-08T12:14:34.314Z,7.16
2017-05-08T12:17:03.397Z,9.42
2017-05-08T12:19:32.434Z,9.06
2017-05-08T12:22:01.518Z,7.56
2017-05-08T12:24:30.555Z,8.96
2017-05-08T12:27:00.380Z,7.92
2017-05-08T12:29:30.157Z,9.56
2017-05-08T12:31:59.249Z,7.80
2017-05-08T12:34:28.284Z,10.88
2017-05-08T12:36:57.366Z,9.88
2017-05-08T12:39:27.176Z,8.84
2017-05-08T12:41:56.253Z,8.24
2017-05-08T12:44:25.313Z,9.50
2017-05-08T12:46:54.380Z,9.56
2017-05-08T12:49:23.460Z,9.62
2017-05-08T12:51:53.454Z,5.70
2017-05-08T12:54:22.536Z,6.78
2017-05-08T12:56:51.668Z,4.82
2017-05-08T12:59:20.738Z,4.10
2017-05-08T13:01:49.764Z,5.06
2017-05-08T13:04:19.571Z,4.20
2017-05-08T13:06:49.348Z,5.14
2017-05-08T13:09:18.428Z,5.56
2017-05-08T13:11:47.447Z,4.60
2017-05-08T13:14:16.534Z,5.24
2017-05-08T13:16:45.562Z,4.34
2017-05-08T13:19:14.607Z,5.98
2017-05-08T13:21:43.683Z,5.28
2017-05-08T13:24:12.973Z,5.70
2017-05-08T13:26:43.088Z,4.60
2017-05-08T13:29:12.868Z,4.92
2017-05-08T13:31:41.941Z,6.18
2017-05-08T13:34:10.969Z,5.10
2017-05-08T13:36:40.053Z,6.04
2017-05-08T13:39:09.086Z,6.18
2017-05-08T13:41:39.204Z,5.34
2017-05-08T13:44:08.974Z,5.32
2017-05-08T13:46:38.880Z,5.08
2017-05-08T13:49:07.905Z,5.34
2017-05-08T13:51:37.014Z,5.34
2017-05-08T13:54:06.794Z,5.98
2017-05-08T13:56:36.135Z,6.50
2017-05-08T13:59:05.907Z,6.90
2017-05-08T14:01:34.991Z,6.04
2017-05-08T14:04:04.131Z,6.92
2017-05-08T14:06:33.231Z,7.96
2017-05-08T14:09:02.996Z,7.18
2017-05-08T14:11:32.062Z,5.76
2017-05-08T14:14:01.088Z,9.70
2017-05-08T14:16:30.216Z,6.50
2017-05-08T14:18:59.331Z,5.92
2017-05-08T14:21:29.104Z,5.40
2017-05-08T14:23:58.171Z,5.50
2017-05-08T14:26:27.190Z,5.88
2017-05-08T14:28:56.317Z,5.50
2017-05-08T14:31:26.092Z,7.40
2017-05-08T14:33:55.177Z,5.74
2017-05-08T14:36:24.199Z,6.14
2017-05-08T14:38:53.269Z,7.82
2017-05-08T14:41:22.328Z,6.94
2017-05-08T14:43:51.358Z,7.40
2017-05-08T14:46:20.440Z,7.04
2017-05-08T14:48:49.722Z,7.84
2017-05-08T14:51:18.796Z,7.56
2017-05-08T14:53:48.574Z,8.08
2017-05-08T14:56:17.664Z,6.38
2017-05-08T14:58:46.687Z,4.62
2017-05-08T15:01:15.745Z,5.78
2017-05-08T15:03:44.818Z,4.00
2017-05-08T15:06:13.855Z,3.56
2017-05-08T15:08:42.967Z,3.64
2017-05-08T15:11:12.004Z,3.66
2017-05-08T15:13:41.059Z,3.90
2017-05-08T15:16:10.132Z,3.52
2017-05-08T15:18:39.155Z,3.00
2017-05-08T15:21:08.225Z,3.32
2017-05-08T15:23:37.256Z,3.24
2017-05-08T15:26:07.056Z,3.58
2017-05-08T15:28:36.077Z,3.20
2017-05-08T15:31:05.153Z,3.40
2017-05-08T15:33:34.472Z,3.32
2017-05-08T15:36:04.278Z,3.80
2017-05-08T15:38:34.298Z,3.46
2017-05-08T15:41:04.159Z,3.12
2017-05-08T15:43:33.184Z,5.06
2017-05-08T15:46:02.252Z,3.00
2017-05-08T15:48:31.301Z,2.76
2017-05-08T15:51:01.071Z,2.38
2017-05-08T15:53:30.416Z,2.54
2017-05-08T15:55:59.469Z,2.54
2017-05-08T15:58:28.537Z,3.22
2017-05-08T16:00:57.560Z,2.22
2017-05-08T16:03:26.636Z,2.54
2017-05-08T16:05:55.660Z,2.10
2017-05-08T16:08:24.720Z,2.30
2017-05-08T16:10:53.787Z,2.48
2017-05-08T16:13:22.816Z,5.02
2017-05-08T16:15:51.884Z,2.30
2017-05-08T16:18:20.930Z,2.14
2017-05-08T16:20:49.993Z,1.82
2017-05-08T16:23:19.051Z,1.68
2017-05-08T16:25:48.825Z,2.30
2017-05-08T16:28:17.902Z,1.98
2017-05-08T16:30:46.936Z,1.46
2017-05-08T16:33:16.000Z,2.24
2017-05-08T16:35:45.076Z,1.82
2017-05-08T16:38:14.108Z,1.48
2017-05-08T16:40:43.446Z,1.88
2017-05-08T16:43:13.241Z,1.86
2017-05-08T16:45:42.323Z,1.96
2017-05-08T16:48:11.351Z,1.62
2017-05-08T16:50:41.167Z,1.90
2017-05-08T16:53:10.428Z,1.24
2017-05-08T16:55:39.788Z,1.44
2017-05-08T16:58:08.887Z,2.38
2017-05-08T17:00:37.972Z,2.00
2017-05-08T17:03:07.006Z,1.86
2017-05-08T17:05:36.079Z,2.58
2017-05-08T17:08:05.160Z,1.74
2017-05-08T17:10:35.435Z,1.78
2017-05-08T17:13:04.513Z,2.02
2017-05-08T17:15:33.547Z,1.86
2017-05-08T17:18:03.356Z,1.90
2017-05-08T17:20:33.171Z,2.08
2017-05-08T17:23:02.486Z,1.70
2017-05-08T17:25:32.255Z,2.28
2017-05-08T17:28:01.318Z,2.20
2017-05-08T17:30:30.360Z,1.92
2017-05-08T17:32:59.416Z,2.12
2017-05-08T17:35:28.479Z,2.20
2017-05-08T17:37:58.248Z,2.80
2017-05-08T17:40:27.316Z,2.78
2017-05-08T17:42:56.351Z,2.32
2017-05-08T17:45:25.416Z,2.18
2017-05-08T17:47:54.548Z,2.28
2017-05-08T17:50:23.572Z,2.42
2017-05-08T17:52:52.665Z,2.64
2017-05-08T17:55:22.423Z,2.22
2017-05-08T17:57:51.492Z,1.68
2017-05-08T18:00:20.525Z,2.26
2017-05-08T18:02:49.598Z,2.40
2017-05-08T18:05:18.658Z,2.06
2017-05-08T18:07:48.427Z,1.96
2017-05-08T18:10:17.495Z,1.88
2017-05-08T18:12:46.764Z,1.84
2017-05-08T18:15:16.570Z,2.04
2017-05-08T18:17:46.356Z,2.20
2017-05-08T18:20:15.423Z,2.44
2017-05-08T18:22:44.466Z,2.50
2017-05-08T18:25:13.541Z,2.40
2017-05-08T18:27:42.861Z,2.70
2017-05-08T18:30:12.180Z,3.90
2017-05-08T18:32:41.991Z,2.60
2017-05-08T18:35:11.759Z,2.38
2017-05-08T18:37:40.847Z,2.88
2017-05-08T18:40:09.889Z,2.32
2017-05-08T18:42:39.704Z,2.78
2017-05-08T18:45:09.739Z,2.70
2017-05-08T18:47:38.826Z,2.06
2017-05-08T18:50:07.855Z,2.46
2017-05-08T18:52:37.219Z,2.90
2017-05-08T18:55:07.237Z,2.38
2017-05-08T18:57:37.048Z,2.74
2017-05-08T19:00:06.828Z,2.28
2017-05-08T19:02:36.163Z,1.98
2017-05-08T19:05:05.936Z,2.24
2017-05-08T19:07:34.999Z,2.16
2017-05-08T19:10:04.020Z,2.20
2017-05-08T19:12:33.079Z,2.16
2017-05-08T19:15:02.107Z,2.42
2017-05-08T19:17:31.172Z,2.10
2017-05-08T19:20:00.611Z,1.90
2017-05-08T19:22:29.957Z,2.32
2017-05-08T19:24:59.976Z,2.00
2017-05-08T19:27:29.778Z,2.86
2017-05-08T19:29:59.551Z,2.22
2017-05-08T19:32:28.641Z,1.98
2017-05-08T19:34:57.675Z,1.98
2017-05-08T19:37:26.753Z,2.28
2017-05-08T19:39:55.779Z,1.90
2017-05-08T19:42:25.587Z,1.80
2017-05-08T19:44:55.351Z,1.78
2017-05-08T19:47:24.411Z,2.52
2017-05-08T19:49:53.449Z,2.16
2017-05-08T19:52:22.533Z,2.00
2017-05-08T19:54:51.576Z,1.64
2017-05-08T19:57:21.392Z,2.32
2017-05-08T19:59:51.146Z,2.56
2017-05-08T20:02:20.220Z,1.76
2017-05-08T20:04:49.256Z,2.60
2017-05-08T20:07:18.327Z,2.54
2017-05-08T20:09:47.363Z,2.42
2017-05-08T20:12:16.419Z,2.52
2017-05-08T20:14:45.475Z,2.66
2017-05-08T20:17:15.500Z,2.74
2017-05-08T20:19:44.577Z,3.08
2017-05-08T20:22:13.643Z,2.98
2017-05-08T20:24:42.699Z,3.70
2017-05-08T20:27:11.764Z,4.16
2017-05-08T20:29:40.801Z,5.98
2017-05-08T20:32:09.870Z,4.24
2017-05-08T20:34:39.621Z,5.88
2017-05-08T20:37:08.674Z,3.90
2017-05-08T20:39:38.478Z,3.44
2017-05-08T20:42:07.500Z,2.54
2017-05-08T20:44:36.569Z,2.58
2017-05-08T20:47:05.590Z,2.12
2017-05-08T20:49:34.661Z,2.40
2017-05-08T20:52:04.472Z,2.50
2017-05-08T20:54:33.514Z,2.28
2017-05-08T20:57:02.575Z,2.32
2017-05-08T20:59:32.397Z,2.50
2017-05-08T21:02:01.443Z,2.08
2017-05-08T21:04:30.516Z,2.82
2017-05-08T21:06:59.536Z,2.74
2017-05-08T21:09:28.606Z,2.16
2017-05-08T21:11:57.975Z,2.52
2017-05-08T21:14:27.281Z,2.46
2017-05-08T21:16:56.353Z,2.02
2017-05-08T21:19:25.380Z,2.22
2017-05-08T21:21:54.451Z,2.60
2017-05-08T21:24:24.284Z,2.54
2017-05-08T21:26:53.308Z,3.04
2017-05-08T21:29:22.371Z,2.50
2017-05-08T21:31:51.400Z,2.76
2017-05-08T21:34:20.456Z,2.34
2017-05-08T21:36:50.267Z,2.66
2017-05-08T21:39:20.032Z,2.76
2017-05-08T21:41:49.095Z,2.30
2017-05-08T21:44:18.129Z,2.82
2017-05-08T21:46:47.199Z,2.24
2017-05-08T21:49:16.219Z,2.70
2017-05-08T21:51:45.288Z,2.26
2017-05-08T21:54:14.370Z,1.74
2017-05-08T21:56:43.404Z,2.40
2017-05-08T21:59:12.461Z,2.58
2017-05-08T22:01:41.740Z,2.58
2017-05-08T22:04:11.572Z,2.50
2017-05-08T22:06:40.590Z,2.60
2017-05-08T22:09:09.665Z,2.74
2017-05-08T22:11:38.686Z,2.68
2017-05-08T22:14:07.752Z,2.92
2017-05-08T22:16:36.816Z,2.30
2017-05-08T22:19:05.845Z,2.92
2017-05-08T22:21:34.914Z,2.48
2017-05-08T22:24:04.667Z,2.70
2017-05-08T22:26:33.736Z,2.72
2017-05-08T22:29:02.764Z,2.72
2017-05-08T22:31:31.822Z,2.78
2017-05-08T22:34:01.614Z,2.60
2017-05-08T22:36:31.394Z,2.56
2017-05-08T22:39:00.476Z,2.42
2017-05-08T22:41:29.741Z,1.88
2017-05-08T22:43:59.537Z,3.22
2017-05-08T22:46:28.608Z,2.80
2017-05-08T22:48:57.950Z,3.66
2017-05-08T22:51:27.757Z,3.20
2017-05-08T22:53:57.532Z,2.72
2017-05-08T22:56:26.607Z,2.78
2017-05-08T22:58:55.627Z,2.82
2017-05-08T23:01:24.768Z,3.34
2017-05-08T23:03:53.792Z,2.58
2017-05-08T23:06:22.882Z,2.84
2017-05-08T23:08:51.939Z,2.26
2017-05-08T23:11:21.743Z,3.20
2017-05-08T23:13:50.762Z,2.60
2017-05-08T23:16:19.845Z,2.60
2017-05-08T23:18:49.607Z,2.36
2017-05-08T23:21:18.723Z,2.06
2017-05-08T23:23:47.754Z,2.62
2017-05-08T23:26:17.603Z,2.82
2017-05-08T23:28:46.596Z,2.76
2017-05-08T23:31:15.656Z,2.58
2017-05-08T23:33:45.463Z,1.90
2017-05-08T23:36:15.230Z,2.58
2017-05-08T23:38:44.304Z,2.20
2017-05-08T23:41:13.336Z,3.00
2017-05-08T23:43:42.390Z,3.08
2017-05-08T23:46:11.463Z,2.90
2017-05-08T23:48:41.483Z,3.54
2017-05-08T23:51:11.295Z,3.30
2017-05-08T23:53:41.059Z,3.24
2017-05-08T23:56:10.137Z,3.04
2017-05-08T23:58:39.170Z,3.12
